Time;durP1;ratioP1;P1;durP2;ratioP2;P2;SDS_P1;SDS_P2;PMS_P1;PMS_P2;Temp;Humidity;BMP_temperature;BMP_pressure;BME280_temperature;BME280_humidity;BME280_pressure;Samples;Min_cycle;Max_cycle;Signal;HPM_P1;HPM_P2
2023/01/21 00:01:05;;;;;;;79.20;31.70;;;;;;;-0.39;100.00;102755.63;5074515;28;20103;-67
2023/01/21 00:03:30;;;;;;;80.68;30.80;;;;;;;-0.37;100.00;102756.56;5075667;28;20471;-67
2023/01/21 00:05:57;;;;;;;74.30;31.67;;;;;;;-0.39;100.00;102769.44;5074126;28;20024;-69
2023/01/21 00:08:22;;;;;;;77.00;30.73;;;;;;;-0.35;100.00;102767.88;5074934;28;20031;-67
2023/01/21 00:10:48;;;;;;;74.65;31.00;;;;;;;-0.36;100.00;102773.88;5076259;28;20052;-66
2023/01/21 00:13:13;;;;;;;81.03;32.05;;;;;;;-0.41;100.00;102772.78;5074762;28;20044;-68
2023/01/21 00:15:38;;;;;;;74.30;31.80;;;;;;;-0.43;100.00;102774.41;5073457;28;20107;-68
2023/01/21 00:18:04;;;;;;;82.55;31.83;;;;;;;-0.38;100.00;102772.94;5074175;28;20416;-67
2023/01/21 00:20:29;;;;;;;80.53;32.55;;;;;;;-0.44;100.00;102773.56;5073026;28;20033;-66
2023/01/21 00:22:55;;;;;;;84.55;32.35;;;;;;;-0.40;100.00;102777.16;5070984;28;20029;-65
2023/01/21 00:25:20;;;;;;;73.38;31.08;;;;;;;-0.49;100.00;102781.94;5073001;28;20028;-69
2023/01/21 00:27:46;;;;;;;82.80;33.38;;;;;;;-0.46;100.00;102784.66;5072162;28;20021;-66
2023/01/21 00:30:12;;;;;;;72.80;31.42;;;;;;;-0.47;100.00;102794.16;5071455;28;20024;-67
2023/01/21 00:32:37;;;;;;;84.40;33.50;;;;;;;-0.41;100.00;102789.22;5068590;28;20030;-69
2023/01/21 00:35:03;;;;;;;79.40;31.52;;;;;;;-0.49;100.00;102795.75;5069489;28;20380;-67
2023/01/21 00:37:28;;;;;;;76.30;30.27;;;;;;;-0.47;100.00;102799.31;5050721;28;20128;-67
2023/01/21 00:39:54;;;;;;;70.28;30.45;;;;;;;-0.37;100.00;102803.19;5069321;28;20451;-67
2023/01/21 00:42:19;;;;;;;72.88;29.52;;;;;;;-0.39;100.00;102802.25;5070063;28;20059;-66
2023/01/21 00:44:44;;;;;;;70.85;30.05;;;;;;;-0.36;100.00;102806.69;5069893;28;20060;-68
2023/01/21 00:47:10;;;;;;;69.80;29.27;;;;;;;-0.35;100.00;102809.34;5069402;28;20047;-67
2023/01/21 00:49:35;;;;;;;74.43;28.63;;;;;;;-0.45;100.00;102814.94;5069807;28;20055;-66
2023/01/21 00:52:00;;;;;;;73.97;30.15;;;;;;;-0.46;100.00;102824.41;5065763;28;20025;-67
2023/01/21 00:54:26;;;;;;;69.35;29.98;;;;;;;-0.53;100.00;102818.06;5051628;28;20040;-67
2023/01/21 00:56:51;;;;;;;75.93;29.92;;;;;;;-0.58;100.00;102823.84;5069466;28;20041;-67
2023/01/21 00:59:16;;;;;;;67.88;28.58;;;;;;;-0.54;100.00;102829.22;5069527;28;20025;-67
2023/01/21 01:01:42;;;;;;;75.40;28.45;;;;;;;-0.57;100.00;102836.00;5069351;28;20028;-67
2023/01/21 01:04:09;;;;;;;74.03;30.05;;;;;;;-0.59;100.00;102840.22;5069067;28;20024;-65
2023/01/21 01:06:35;;;;;;;73.75;28.33;;;;;;;-0.72;100.00;102839.63;5068572;28;20497;-67
2023/01/21 01:09:00;;;;;;;72.88;29.27;;;;;;;-0.68;100.00;102846.75;5068758;28;20028;-66
2023/01/21 01:11:26;;;;;;;69.55;29.08;;;;;;;-0.65;100.00;102852.06;5068925;28;20040;-67
2023/01/21 01:13:52;;;;;;;72.45;28.65;;;;;;;-0.64;100.00;102859.03;5068258;28;20437;-67
2023/01/21 01:16:18;;;;;;;77.80;30.27;;;;;;;-0.73;100.00;102855.13;5067812;28;20051;-67
2023/01/21 01:18:44;;;;;;;80.47;30.75;;;;;;;-0.71;100.00;102863.84;5068261;28;20029;-67
2023/01/21 01:21:12;;;;;;;79.78;31.20;;;;;;;-0.66;100.00;102859.78;5066826;28;20075;-66
2023/01/21 01:23:38;;;;;;;75.13;30.35;;;;;;;-0.66;100.00;102857.19;5067991;28;20029;-67
2023/01/21 01:26:05;;;;;;;71.95;27.80;;;;;;;-0.64;100.00;102864.19;5068304;28;20439;-68
2023/01/21 01:28:31;;;;;;;73.30;28.45;;;;;;;-0.64;100.00;102860.72;5050811;28;20034;-66
2023/01/21 01:30:57;;;;;;;78.22;29.98;;;;;;;-0.64;100.00;102863.31;5068664;28;20024;-66
2023/01/21 01:33:24;;;;;;;75.30;28.90;;;;;;;-0.65;100.00;102858.94;5068665;28;20131;-68
2023/01/21 01:35:49;;;;;;;75.38;28.52;;;;;;;-0.71;100.00;102853.47;5067938;28;20025;-65
2023/01/21 01:38:19;;;;;;;66.70;28.80;;;;;;;-0.78;100.00;102855.78;5068072;28;20039;-67
2023/01/21 01:40:46;;;;;;;67.72;27.27;;;;;;;-0.70;100.00;102866.50;5067258;28;20024;-66
2023/01/21 01:43:17;;;;;;;69.00;28.10;;;;;;;-0.66;100.00;102870.13;5067645;28;20035;-66
2023/01/21 01:45:43;;;;;;;70.47;28.90;;;;;;;-0.71;100.00;102869.91;5067378;28;20026;-67
2023/01/21 01:48:10;;;;;;;66.93;28.58;;;;;;;-0.76;100.00;102873.97;5067533;28;20025;-65
2023/01/21 01:50:38;;;;;;;69.40;28.17;;;;;;;-0.65;100.00;102872.78;5050637;28;20040;-67
2023/01/21 01:53:04;;;;;;;65.00;27.98;;;;;;;-0.67;100.00;102876.09;5049517;28;20115;-67
2023/01/21 01:55:33;;;;;;;67.68;27.40;;;;;;;-0.60;100.00;102874.69;5050819;28;20442;-67
2023/01/21 01:57:58;;;;;;;;;;;;;;;-0.54;100.00;102883.63;5069057;28;20056;-64
2023/01/21 02:00:26;;;;;;;71.80;26.13;;;;;;;-0.65;100.00;102892.59;5068622;28;20397;-65
2023/01/21 02:05:37;;;;;;;62.35;25.52;;;;;;;-0.57;100.00;102900.75;5133175;22;20144;-68
2023/01/21 02:08:02;;;;;;;66.68;27.33;;;;;;;-0.68;100.00;102903.72;5048177;28;20024;-66
2023/01/21 02:10:30;;;;;;;63.97;26.52;;;;;;;-0.57;100.00;102909.38;5049596;28;20033;-66
2023/01/21 02:12:56;;;;;;;64.07;28.20;;;;;;;-0.54;100.00;102916.41;5067665;28;20031;-64
2023/01/21 02:15:23;;;;;;;69.63;27.83;;;;;;;-0.62;100.00;102922.94;5067973;28;20119;-65
2023/01/21 02:18:28;;;;;;;66.35;26.67;;;;;;;-0.65;100.00;102914.22;5050547;28;20029;-65
2023/01/21 02:20:54;;;;;;;60.92;26.08;;;;;;;-0.68;100.00;102924.44;5063315;28;20135;-65
2023/01/21 02:23:30;;;;;;;62.10;26.90;;;;;;;-0.58;100.00;102930.91;5068085;28;20103;-67
2023/01/21 02:26:08;;;;;;;66.68;27.00;;;;;;;-0.55;100.00;102936.25;5065775;28;20035;-67
2023/01/21 02:29:15;;;;;;;61.35;27.17;;;;;;;-0.66;100.00;102934.88;5067330;28;20386;-66
2023/01/21 02:31:52;;;;;;;75.05;26.88;;;;;;;-0.72;100.00;102947.53;5057723;28;20048;-67
2023/01/21 02:34:30;;;;;;;67.45;28.17;;;;;;;-0.80;100.00;102953.22;5049077;28;20605;-64
2023/01/21 02:37:01;;;;;;;75.97;28.38;;;;;;;-0.72;100.00;102960.47;5048317;28;20529;-67
2023/01/21 02:39:26;;;;;;;66.40;27.15;;;;;;;-0.72;100.00;102963.06;5049636;28;20684;-66
2023/01/21 02:42:19;;;;;;;63.97;27.13;;;;;;;-0.63;100.00;102971.25;5067301;28;20036;-67
2023/01/21 02:45:19;;;;;;;63.15;27.50;;;;;;;-0.71;100.00;102983.84;5067082;28;20021;-64
2023/01/21 02:47:49;;;;;;;;;;;;;;;-0.77;100.00;102987.03;5067274;28;20681;-65
2023/01/21 02:50:22;;;;;;;61.30;25.70;;;;;;;-0.80;100.00;102992.06;5067156;28;20030;-65
2023/01/21 02:52:58;;;;;;;60.05;24.73;;;;;;;-0.80;100.00;102999.81;5046898;28;20331;-65
2023/01/21 02:55:30;;;;;;;68.57;26.88;;;;;;;-0.80;100.00;102997.25;5065680;28;20025;-66
2023/01/21 02:58:00;;;;;;;67.13;25.60;;;;;;;-0.86;100.00;102996.94;5065705;28;20029;-65
2023/01/21 03:00:30;;;;;;;;;;;;;;;-0.87;100.00;103000.34;5049613;28;20103;-65
2023/01/21 03:03:22;;;;;;;69.82;25.60;;;;;;;-0.87;100.00;103008.13;5047468;28;19923;-67
2023/01/21 03:06:06;;;;;;;66.57;25.33;;;;;;;-0.91;100.00;103003.56;5045109;28;20057;-65
2023/01/21 03:08:40;;;;;;;61.92;25.50;;;;;;;-0.91;100.00;102994.13;5046342;28;20139;-66
2023/01/21 03:11:14;;;;;;;58.70;26.70;;;;;;;-0.91;100.00;102995.81;5029041;28;20024;-66
2023/01/21 03:19:17;;;;;;;61.97;28.17;;;;;;;-0.94;100.00;102993.06;5045538;28;20044;-65
2023/01/21 03:21:43;;;;;;;64.70;26.45;;;;;;;-0.98;100.00;102998.91;5044397;28;20025;-65
2023/01/21 03:24:09;;;;;;;58.88;25.65;;;;;;;-1.04;100.00;103003.00;5045585;28;20108;-67
2023/01/21 03:26:38;;;;;;;61.58;26.15;;;;;;;-1.10;100.00;103006.97;5045894;28;20017;-64
2023/01/21 03:29:07;;;;;;;63.97;27.73;;;;;;;-1.14;100.00;103021.47;5046854;28;20021;-66
2023/01/21 03:31:35;;;;;;;58.70;24.23;;;;;;;-1.21;100.00;103017.66;5047455;28;20029;-64
2023/01/21 03:34:05;;;;;;;60.75;24.85;;;;;;;-1.27;100.00;103020.84;5045695;28;20040;-66
2023/01/21 03:36:36;;;;;;;65.20;26.05;;;;;;;-1.30;100.00;103019.78;5045027;28;20056;-67
2023/01/21 03:39:06;;;;;;;64.05;26.35;;;;;;;-1.37;100.00;103021.19;5040026;28;20361;-64
2023/01/21 03:41:35;;;;;;;53.65;24.80;;;;;;;-1.40;100.00;103021.00;5044705;28;20029;-67
2023/01/21 03:44:00;;;;;;;58.25;25.85;;;;;;;-1.43;100.00;103023.44;5045577;28;20028;-66
2023/01/21 03:46:43;;;;;;;58.80;24.45;;;;;;;-1.48;100.00;103024.91;5046195;28;20083;-65
2023/01/21 03:49:15;;;;;;;59.33;25.23;;;;;;;-1.49;100.00;103033.47;5045039;28;20036;-65
2023/01/21 03:51:45;;;;;;;65.00;26.92;;;;;;;-1.43;100.00;103034.69;5044166;28;20033;-64
2023/01/21 03:54:10;;;;;;;64.15;26.13;;;;;;;-1.36;100.00;103035.88;5045776;28;20041;-64
2023/01/21 03:56:36;;;;;;;65.68;25.95;;;;;;;-1.39;100.00;103043.47;5045813;28;20086;-65
2023/01/21 03:59:01;;;;;;;77.22;29.33;;;;;;;-1.42;100.00;103045.91;5046298;28;20045;-65
2023/01/21 04:01:26;;;;;;;69.88;27.23;;;;;;;-1.40;100.00;103044.28;5046109;28;20022;-65
2023/01/21 04:03:52;;;;;;;75.63;28.02;;;;;;;-1.37;100.00;103044.44;5046208;28;20025;-66
2023/01/21 04:06:19;;;;;;;84.82;28.20;;;;;;;-1.35;100.00;103047.13;5066547;28;20037;-66
2023/01/21 04:08:45;;;;;;;76.45;28.23;;;;;;;-1.33;100.00;103046.38;5069439;28;20459;-65
2023/01/21 04:11:10;;;;;;;71.82;27.42;;;;;;;-1.37;100.00;103046.13;5051379;28;20038;-67
2023/01/21 04:13:36;;;;;;;72.18;27.17;;;;;;;-1.35;100.00;103050.59;5069121;28;20028;-65
2023/01/21 04:16:01;;;;;;;72.90;28.20;;;;;;;-1.35;100.00;103052.28;5069578;28;20103;-64
2023/01/21 04:18:26;;;;;;;73.53;27.88;;;;;;;-1.36;100.00;103053.97;5070061;28;20052;-65
2023/01/21 04:20:52;;;;;;;74.40;28.00;;;;;;;-1.42;100.00;103051.06;5069090;28;20556;-65
2023/01/21 04:23:17;;;;;;;70.90;27.90;;;;;;;-1.43;100.00;103054.47;5070513;28;20390;-65
2023/01/21 04:25:43;;;;;;;70.72;26.30;;;;;;;-1.43;100.00;103055.38;5069981;28;20115;-65
2023/01/21 04:28:08;;;;;;;69.47;28.70;;;;;;;-1.40;100.00;103047.78;5068840;28;20024;-67
2023/01/21 04:30:33;;;;;;;81.10;29.77;;;;;;;-1.43;100.00;103054.47;5069141;28;20031;-70
2023/01/21 04:32:59;;;;;;;73.97;27.30;;;;;;;-1.35;100.00;103048.03;5069358;28;20360;-66
2023/01/21 04:35:24;;;;;;;81.28;29.33;;;;;;;-1.33;100.00;103048.09;5068361;28;20382;-66
2023/01/21 04:37:50;;;;;;;78.47;29.30;;;;;;;-1.31;100.00;103044.78;5070208;28;20028;-66
2023/01/21 04:40:15;;;;;;;76.82;28.65;;;;;;;-1.31;100.00;103043.88;5070044;28;20048;-65
2023/01/21 04:42:41;;;;;;;76.75;28.55;;;;;;;-1.35;100.00;103042.84;5068936;28;20036;-66
2023/01/21 04:45:07;;;;;;;74.38;27.52;;;;;;;-1.33;100.00;103046.38;5069170;28;20028;-65
2023/01/21 04:47:32;;;;;;;68.85;26.40;;;;;;;-1.32;100.00;103053.31;5068690;28;20618;-66
2023/01/21 04:49:57;;;;;;;72.18;29.05;;;;;;;-1.29;100.00;103048.31;5068764;28;20036;-65
2023/01/21 04:52:23;;;;;;;77.65;27.55;;;;;;;-1.25;100.00;103054.53;5067926;28;20024;-65
2023/01/21 04:54:48;;;;;;;71.57;27.83;;;;;;;-1.35;100.00;103060.97;5069119;28;20036;-65
2023/01/21 04:57:13;;;;;;;66.82;27.13;;;;;;;-1.31;100.00;103055.13;5069141;28;20028;-65
2023/01/21 04:59:39;;;;;;;68.43;28.10;;;;;;;-1.33;100.00;103067.06;5069389;28;20104;-67
2023/01/21 05:02:04;;;;;;;66.05;27.08;;;;;;;-1.42;100.00;103067.50;5069031;28;20059;-66
2023/01/21 05:04:31;;;;;;;71.90;28.88;;;;;;;-1.58;100.00;103070.97;5069229;28;20041;-65
2023/01/21 05:06:57;;;;;;;63.75;28.30;;;;;;;-1.57;100.00;103070.16;5068042;28;20104;-67
2023/01/21 05:09:22;;;;;;;66.25;25.17;;;;;;;-1.61;100.00;103073.41;5068793;28;20025;-65
2023/01/21 05:11:47;;;;;;;66.03;26.25;;;;;;;-1.64;100.00;103073.22;5067811;28;20028;-67
2023/01/21 05:14:13;;;;;;;64.20;26.08;;;;;;;-1.62;100.00;103076.81;5067935;28;20025;-66
2023/01/21 05:16:38;;;;;;;74.38;27.75;;;;;;;-1.64;100.00;103088.75;5067409;28;20101;-66
2023/01/21 05:19:03;;;;;;;64.65;25.38;;;;;;;-1.65;100.00;103084.41;5067204;28;20063;-65
2023/01/21 05:21:29;;;;;;;69.32;25.00;;;;;;;-1.68;100.00;103097.16;5067886;28;20063;-65
2023/01/21 05:23:54;;;;;;;77.47;27.63;;;;;;;-1.72;100.00;103090.03;5068099;28;20044;-66
2023/01/21 05:26:19;;;;;;;66.80;27.48;;;;;;;-1.70;100.00;103091.91;5069091;28;20024;-65
2023/01/21 05:28:45;;;;;;;68.47;27.60;;;;;;;-1.68;100.00;103094.56;5068454;28;20119;-65
2023/01/21 05:31:10;;;;;;;63.83;25.23;;;;;;;-1.69;100.00;103088.50;5068601;28;20061;-66
2023/01/21 05:33:35;;;;;;;68.18;25.50;;;;;;;-1.70;100.00;103094.47;5066403;28;20086;-66
2023/01/21 05:36:02;;;;;;;66.00;25.80;;;;;;;-1.67;100.00;103093.75;5066656;28;20029;-67
2023/01/21 05:38:28;;;;;;;69.43;27.50;;;;;;;-1.65;100.00;103094.72;5067203;28;20051;-66
2023/01/21 05:41:00;;;;;;;65.85;26.67;;;;;;;-1.63;100.00;103098.28;5067482;28;20036;-65
2023/01/21 05:43:26;;;;;;;71.70;25.45;;;;;;;-1.62;100.00;103106.94;5068421;28;20035;-66
2023/01/21 05:45:51;;;;;;;69.40;27.13;;;;;;;-1.64;100.00;103112.00;5067976;28;20025;-66
2023/01/21 05:48:16;;;;;;;84.82;27.92;;;;;;;-1.63;100.00;103112.91;5068306;28;20738;-66
2023/01/21 05:50:42;;;;;;;70.50;27.10;;;;;;;-1.66;100.00;103113.63;5066452;28;20057;-66
2023/01/21 05:53:07;;;;;;;63.53;26.98;;;;;;;-1.67;100.00;103122.19;5066393;28;20506;-65
2023/01/21 05:55:32;;;;;;;70.13;26.77;;;;;;;-1.67;100.00;103123.09;5067169;28;20032;-66
2023/01/21 05:57:58;;;;;;;68.25;27.08;;;;;;;-1.62;100.00;103125.94;5066534;28;20074;-65
2023/01/21 06:00:23;;;;;;;76.80;27.33;;;;;;;-1.63;100.00;103131.88;5066981;28;20035;-66
2023/01/21 06:02:48;;;;;;;76.68;27.63;;;;;;;-1.60;100.00;103137.22;5067804;28;20028;-66
2023/01/21 06:05:14;;;;;;;78.35;29.10;;;;;;;-1.62;100.00;103133.69;5066227;28;20053;-69
2023/01/21 06:07:39;;;;;;;64.93;26.77;;;;;;;-1.69;100.00;103145.38;5066612;28;20119;-65
2023/01/21 06:10:05;;;;;;;73.35;26.50;;;;;;;-1.69;100.00;103145.38;5049587;28;20025;-66
2023/01/21 06:12:31;;;;;;;80.07;28.25;;;;;;;-1.71;100.00;103159.03;5067573;28;20016;-67
2023/01/21 06:14:56;;;;;;;85.75;30.73;;;;;;;-1.76;100.00;103152.69;5067505;28;20035;-66
2023/01/21 06:17:22;;;;;;;75.57;28.02;;;;;;;-1.64;100.00;103163.72;5066688;28;20429;-65
2023/01/21 06:19:47;;;;;;;69.35;27.23;;;;;;;-1.61;100.00;103163.91;5049405;28;20055;-64
2023/01/21 06:22:14;;;;;;;71.45;26.08;;;;;;;-1.62;100.00;103167.28;5065957;28;20020;-65
2023/01/21 06:24:39;;;;;;;80.93;29.38;;;;;;;-1.63;100.00;103162.03;5066942;28;20044;-65
2023/01/21 06:27:04;;;;;;;79.35;27.67;;;;;;;-1.63;100.00;103160.31;5067270;28;20532;-65
2023/01/21 06:29:30;;;;;;;79.60;28.88;;;;;;;-1.71;100.00;103171.97;5048957;28;20025;-67
2023/01/21 06:31:55;;;;;;;78.28;30.02;;;;;;;-1.74;100.00;103184.72;5066997;28;20047;-66
2023/01/21 06:34:20;;;;;;;88.38;29.38;;;;;;;-1.70;100.00;103176.31;5067288;28;20024;-66
2023/01/21 06:36:46;;;;;;;77.00;29.25;;;;;;;-1.76;100.00;103178.56;5067046;28;20021;-65
2023/01/21 06:39:11;;;;;;;73.85;28.02;;;;;;;-1.70;100.00;103184.06;5049336;28;20016;-66
2023/01/21 06:41:37;;;;;;;76.40;27.15;;;;;;;-1.66;100.00;103184.31;5048212;28;20325;-64
2023/01/21 06:44:03;;;;;;;87.38;29.42;;;;;;;-1.65;100.00;103185.22;5066591;28;20434;-67
2023/01/21 06:46:28;;;;;;;69.88;28.75;;;;;;;-1.66;100.00;103186.91;5066946;28;20123;-67
2023/01/21 06:48:53;;;;;;;72.20;28.73;;;;;;;-1.69;100.00;103193.59;5066345;28;20021;-67
2023/01/21 06:51:19;;;;;;;73.32;27.67;;;;;;;-1.75;100.00;103195.88;5066889;28;20405;-65
2023/01/21 06:53:44;;;;;;;82.53;29.17;;;;;;;-1.75;100.00;103201.91;5067085;28;20025;-65
2023/01/21 06:56:09;;;;;;;74.30;28.05;;;;;;;-1.70;100.00;103212.50;5066508;28;20055;-65
2023/01/21 06:58:34;;;;;;;79.03;29.35;;;;;;;-1.76;100.00;103210.47;5066988;28;20021;-64
2023/01/21 07:01:00;;;;;;;78.80;29.48;;;;;;;-1.73;100.00;103215.81;5066989;28;20036;-65
2023/01/21 07:03:25;;;;;;;71.43;25.98;;;;;;;-1.70;100.00;103212.50;5065437;28;20025;-65
2023/01/21 07:05:51;;;;;;;90.97;30.98;;;;;;;-1.73;100.00;103217.50;5065577;28;20064;-68
2023/01/21 07:08:16;;;;;;;96.72;30.63;;;;;;;-1.75;100.00;103222.59;5066703;28;20480;-70
2023/01/21 07:10:41;;;;;;;98.10;30.45;;;;;;;-1.70;100.00;103228.00;5066710;28;20550;-67
2023/01/21 07:13:07;;;;;;;89.03;30.13;;;;;;;-1.60;100.00;103222.56;5048920;28;20028;-66
2023/01/21 07:15:32;;;;;;;93.15;30.30;;;;;;;-1.57;100.00;103222.72;5066489;28;20386;-65
2023/01/21 07:17:57;;;;;;;82.28;28.95;;;;;;;-1.51;100.00;103226.47;5066804;28;20024;-65
2023/01/21 07:20:23;;;;;;;87.65;29.38;;;;;;;-1.51;100.00;103229.06;5066371;28;20028;-65
2023/01/21 07:22:48;;;;;;;91.28;31.63;;;;;;;-1.55;100.00;103226.28;5065704;28;20020;-67
2023/01/21 07:25:13;;;;;;;89.90;29.33;;;;;;;-1.61;100.00;103235.38;5066458;28;20479;-65
2023/01/21 07:27:42;;;;;;;79.72;28.00;;;;;;;-1.58;100.00;103233.88;5056968;28;20467;-65
2023/01/21 07:30:10;;;;;;;87.07;31.08;;;;;;;-1.53;100.00;103234.13;5054732;28;20078;-66
2023/01/21 07:32:35;;;;;;;90.40;29.60;;;;;;;-1.51;100.00;103231.63;5017575;28;20028;-66
2023/01/21 07:35:01;;;;;;;79.47;30.08;;;;;;;-1.55;100.00;103236.63;5057101;28;20021;-65
2023/01/21 07:37:26;;;;;;;85.05;29.65;;;;;;;-1.55;100.00;103239.22;5056000;28;20052;-66
2023/01/21 07:39:51;;;;;;;84.78;31.33;;;;;;;-1.59;100.00;103246.72;5058185;28;20025;-67
2023/01/21 07:42:16;;;;;;;76.97;29.23;;;;;;;-1.66;100.00;103245.47;5061750;28;20027;-67
2023/01/21 07:44:42;;;;;;;81.57;29.58;;;;;;;-1.67;100.00;103252.34;5058759;28;20096;-66
2023/01/21 07:47:09;;;;;;;78.25;29.55;;;;;;;-1.68;100.00;103250.56;5061905;28;20051;-66
2023/01/21 07:49:34;;;;;;;80.10;30.35;;;;;;;-1.62;100.00;103255.22;5050855;28;20020;-66
2023/01/21 07:52:00;;;;;;;77.15;30.48;;;;;;;-1.61;100.00;103256.97;5068695;28;20032;-67
2023/01/21 07:54:25;;;;;;;83.18;29.17;;;;;;;-1.58;100.00;103261.41;5069916;28;20390;-67
2023/01/21 07:56:50;;;;;;;84.13;30.52;;;;;;;-1.53;100.00;103267.75;5069114;28;20089;-69
2023/01/21 07:59:16;;;;;;;91.65;32.38;;;;;;;-1.53;100.00;103278.09;5070077;28;20382;-65
2023/01/21 08:01:41;;;;;;;84.32;30.95;;;;;;;-1.54;100.00;103274.63;5068519;28;20031;-67
2023/01/21 08:04:08;;;;;;;93.22;32.25;;;;;;;-1.47;100.00;103283.63;5067578;28;20115;-67
2023/01/21 08:06:34;;;;;;;85.63;31.55;;;;;;;-1.40;100.00;103290.00;5066493;28;20489;-65
2023/01/21 08:08:59;;;;;;;91.32;32.63;;;;;;;-1.42;100.00;103289.03;5067332;28;20021;-65
2023/01/21 08:11:24;;;;;;;91.97;31.15;;;;;;;-1.17;100.00;103291.28;5067856;28;20021;-65
2023/01/21 08:13:50;;;;;;;96.45;34.42;;;;;;;-0.99;100.00;103289.59;5059699;28;20033;-66
2023/01/21 08:16:15;;;;;;;97.70;36.08;;;;;;;-0.93;100.00;103305.47;5062660;28;20028;-66
2023/01/21 08:18:40;;;;;;;86.20;31.60;;;;;;;-0.99;100.00;103312.91;5067081;28;20028;-65
2023/01/21 08:21:06;;;;;;;89.10;32.55;;;;;;;-1.08;100.00;103315.88;5056956;28;20012;-65
2023/01/21 08:23:31;;;;;;;87.10;31.15;;;;;;;-1.06;100.00;103316.84;5068315;28;20029;-66
2023/01/21 08:26:01;;;;;;;90.70;31.92;;;;;;;-1.03;100.00;103314.44;5059197;28;20077;-66
2023/01/21 08:28:27;;;;;;;107.75;33.47;;;;;;;-1.13;100.00;103320.81;5058805;28;20059;-66
2023/01/21 08:30:52;;;;;;;92.70;31.73;;;;;;;-1.06;100.00;103324.59;5058439;28;20048;-66
2023/01/21 08:33:17;;;;;;;85.05;32.83;;;;;;;-1.00;100.00;103324.94;5040678;28;20226;-65
2023/01/21 08:35:43;;;;;;;87.57;32.20;;;;;;;-0.96;100.00;103331.19;5054005;28;20060;-66
2023/01/21 08:38:08;;;;;;;94.45;32.63;;;;;;;-0.98;100.00;103330.22;5057790;28;20026;-66
2023/01/21 08:40:34;;;;;;;91.93;31.70;;;;;;;-0.97;100.00;103330.28;5060477;28;20029;-66
2023/01/21 08:43:01;;;;;;;100.43;33.33;;;;;;;-0.99;100.00;103333.63;5045517;28;20305;-66
2023/01/21 08:45:27;;;;;;;94.57;32.95;;;;;;;-0.79;100.00;103330.41;5065721;28;20032;-65
2023/01/21 08:47:52;;;;;;;94.20;33.83;;;;;;;-0.92;100.00;103322.78;5065933;28;20077;-66
2023/01/21 08:50:18;;;;;;;94.00;32.22;;;;;;;-0.89;100.00;103330.72;5065235;28;20471;-67
2023/01/21 08:52:50;;;;;;;95.63;33.10;;;;;;;-0.88;100.00;103334.22;5063639;28;20044;-66
2023/01/21 08:55:15;;;;;;;90.78;32.08;;;;;;;-0.84;100.00;103337.00;5066246;28;20021;-65
2023/01/21 08:57:41;;;;;;;88.40;31.42;;;;;;;-0.79;100.00;103335.59;5066455;28;20050;-65
2023/01/21 09:00:07;;;;;;;88.38;34.20;;;;;;;-0.68;100.00;103332.69;5067354;28;20025;-65
2023/01/21 09:02:32;;;;;;;89.18;31.58;;;;;;;-0.63;100.00;103333.81;5067814;28;20036;-65
2023/01/21 09:04:58;;;;;;;90.15;32.97;;;;;;;-0.57;100.00;103338.44;5065882;28;20043;-65
2023/01/21 09:07:23;;;;;;;90.43;34.63;;;;;;;-0.58;100.00;103334.94;5066408;28;20028;-67
2023/01/21 09:09:48;;;;;;;97.13;33.35;;;;;;;-0.46;100.00;103341.56;5058526;28;20017;-66
2023/01/21 09:12:14;;;;;;;92.78;35.70;;;;;;;-0.42;100.00;103346.13;5062769;28;20024;-65
2023/01/21 09:14:39;;;;;;;101.30;34.95;;;;;;;-0.29;100.00;103352.84;5068661;28;20036;-66
2023/01/21 09:17:04;;;;;;;94.10;34.47;;;;;;;-0.15;100.00;103358.75;5061300;28;20578;-65
2023/01/21 09:19:30;;;;;;;95.10;34.15;;;;;;;-0.10;100.00;103366.72;5058286;28;20475;-61
2023/01/21 09:21:55;;;;;;;89.43;33.42;;;;;;;-0.02;100.00;103368.94;5047005;28;20029;-66
2023/01/21 09:24:21;;;;;;;90.75;32.90;;;;;;;-0.14;100.00;103364.00;5055897;28;20100;-67
2023/01/21 09:26:46;;;;;;;85.55;34.10;;;;;;;-0.23;100.00;103370.41;5057138;28;20082;-66
2023/01/21 09:29:11;;;;;;;87.25;34.58;;;;;;;0.09;100.00;103381.53;5057183;28;20024;-66
2023/01/21 09:31:36;;;;;;;88.50;33.70;;;;;;;0.10;100.00;103385.91;5055839;28;20014;-67
2023/01/21 09:34:04;;;;;;;88.35;33.70;;;;;;;0.16;100.00;103391.41;5058267;28;20067;-68
2023/01/21 09:36:31;;;;;;;86.70;34.28;;;;;;;0.29;100.00;103389.41;5056076;28;20065;-67
2023/01/21 09:38:57;;;;;;;74.25;32.67;;;;;;;0.06;100.00;103389.16;5060046;28;20460;-66
2023/01/21 09:41:41;;;;;;;68.78;29.95;;;;;;;0.02;100.00;103394.97;5063609;28;20021;-65
2023/01/21 09:44:11;;;;;;;69.18;30.42;;;;;;;-0.06;100.00;103387.69;5057032;28;20111;-67
2023/01/21 09:46:54;;;;;;;71.28;31.48;;;;;;;0.00;100.00;103394.94;5045704;28;20467;-67
2023/01/21 09:49:38;;;;;;;69.18;28.63;;;;;;;-0.01;100.00;103398.31;5048492;28;20110;-68
2023/01/21 09:52:29;;;;;;;64.95;29.35;;;;;;;0.14;100.00;103400.81;5065961;28;20036;-67
2023/01/21 09:54:55;;;;;;;61.13;28.35;;;;;;;-0.18;100.00;103397.47;5052429;28;20205;-67
2023/01/21 09:57:33;;;;;;;59.83;27.33;;;;;;;-0.32;100.00;103409.66;5043541;28;20111;-65
2023/01/21 10:00:16;;;;;;;56.20;25.55;;;;;;;-0.41;100.00;103412.66;5039680;28;20025;-68
2023/01/21 10:03:03;;;;;;;56.17;26.40;;;;;;;-0.39;100.00;103411.06;5049173;28;20017;-69
2023/01/21 10:05:43;;;;;;;60.42;26.58;;;;;;;-0.29;100.00;103397.78;5036901;28;20048;-67
2023/01/21 10:08:46;;;;;;;57.33;24.98;;;;;;;-0.60;100.00;103411.66;5045409;28;20634;-65
2023/01/21 10:11:32;;;;;;;54.53;25.98;;;;;;;-0.36;100.00;103426.75;5038344;28;20028;-66
2023/01/21 10:14:21;;;;;;;55.45;25.25;;;;;;;-0.21;100.00;103423.22;5033040;28;20094;-67
2023/01/21 10:16:58;;;;;;;57.35;26.05;;;;;;;-0.17;100.00;103428.63;5038137;28;20041;-65
2023/01/21 10:19:32;;;;;;;57.13;25.48;;;;;;;-0.22;100.00;103429.19;5042630;28;20056;-65
2023/01/21 10:22:01;;;;;;;56.28;25.88;;;;;;;-0.12;100.00;103426.25;5045097;28;20475;-67
2023/01/21 10:24:30;;;;;;;61.90;27.80;;;;;;;-0.12;100.00;103434.03;5043745;28;20221;-68
2023/01/21 10:26:56;;;;;;;58.88;26.83;;;;;;;0.05;100.00;103432.34;5044270;28;20029;-68
2023/01/21 10:29:23;;;;;;;63.10;26.38;;;;;;;0.28;100.00;103431.75;5044903;28;20134;-66
2023/01/21 10:31:53;;;;;;;68.60;30.05;;;;;;;0.19;100.00;103429.56;5046000;28;20394;-66
2023/01/21 10:34:18;;;;;;;60.08;26.30;;;;;;;0.16;100.00;103427.72;5025838;28;20078;-67
2023/01/21 10:36:53;;;;;;;52.70;24.95;;;;;;;0.05;100.00;103431.44;5034494;28;20029;-67
2023/01/21 10:39:37;;;;;;;59.60;26.55;;;;;;;0.12;100.00;103429.25;5059732;28;20411;-69
2023/01/21 10:42:12;;;;;;;51.83;24.25;;;;;;;0.39;100.00;103434.88;5045554;28;20120;-66
2023/01/21 10:45:04;;;;;;;56.40;24.63;;;;;;;0.19;100.00;103435.66;5044678;28;20109;-71
2023/01/21 10:47:44;;;;;;;54.88;24.80;;;;;;;0.28;100.00;103431.75;5043525;28;20032;-72
2023/01/21 10:50:31;;;;;;;48.45;23.50;;;;;;;0.33;100.00;103438.94;5043022;28;20471;-69
2023/01/21 10:53:14;;;;;;;52.60;24.55;;;;;;;0.46;100.00;103440.47;5042014;28;20037;-68
2023/01/21 10:55:46;;;;;;;57.58;25.60;;;;;;;0.42;100.00;103438.50;5044422;28;20056;-68
2023/01/21 10:58:26;;;;;;;51.15;24.40;;;;;;;0.40;100.00;103437.56;5045009;28;20040;-68
2023/01/21 11:00:52;;;;;;;52.72;25.00;;;;;;;0.42;100.00;103427.28;5045136;28;20399;-67
2023/01/21 11:03:30;;;;;;;57.88;25.52;;;;;;;0.25;100.00;103435.09;5046027;28;20093;-67
2023/01/21 11:05:57;;;;;;;57.10;25.73;;;;;;;0.34;100.00;103437.25;5059421;28;20048;-67
2023/01/21 11:08:22;;;;;;;54.22;24.70;;;;;;;0.35;100.00;103442.50;5066333;28;20024;-68
2023/01/21 11:10:50;;;;;;;55.38;24.30;;;;;;;0.29;100.00;103441.28;5031347;28;20024;-68
2023/01/21 11:13:15;;;;;;;60.92;25.60;;;;;;;0.37;100.00;103455.56;5049024;28;20059;-68
2023/01/21 11:15:51;;;;;;;54.47;25.85;;;;;;;0.40;100.00;103455.72;5065548;28;20115;-69